createdAt,value
2023-12-09T00:00:16.265Z,7
2023-12-09T00:01:23.365Z,7
2023-12-09T00:02:30.585Z,7
2023-12-09T00:03:37.593Z,7
2023-12-09T00:05:51.279Z,7
2023-12-09T00:06:58.303Z,7
2023-12-09T00:08:05.492Z,7
2023-12-09T00:09:12.561Z,7
2023-12-09T00:10:19.719Z,7
2023-12-09T00:11:26.193Z,7
2023-12-09T00:12:33.310Z,7
2023-12-09T00:13:40.497Z,7
2023-12-09T00:14:48.036Z,7
2023-12-09T00:15:54.617Z,7
2023-12-09T00:17:01.254Z,7
2023-12-09T00:18:08.377Z,7.1
2023-12-09T00:19:15.636Z,7.1
2023-12-09T00:20:22.547Z,7
2023-12-09T00:21:29.748Z,7.1
2023-12-09T00:22:36.218Z,7
2023-12-09T00:23:47.680Z,7.1
2023-12-09T00:24:50.414Z,7.1
2023-12-09T00:25:57.542Z,7.1
2023-12-09T00:27:04.722Z,7.1
2023-12-09T00:28:11.350Z,7.1
2023-12-09T00:29:18.430Z,7.2
2023-12-09T00:30:25.578Z,7.2
2023-12-09T00:31:32.566Z,7.2
2023-12-09T00:32:39.776Z,7.2
2023-12-09T00:33:46.320Z,7.2
2023-12-09T00:34:53.329Z,7.1
2023-12-09T00:36:00.449Z,7.1
2023-12-09T00:37:07.504Z,7.2
2023-12-09T00:38:14.720Z,7.2
2023-12-09T00:39:21.234Z,7.2
2023-12-09T00:40:28.327Z,7.2
2023-12-09T00:41:36.000Z,7.2
2023-12-09T00:42:42.643Z,7.2
2023-12-09T00:43:49.741Z,7.2
2023-12-09T00:44:57.221Z,7.2
2023-12-09T00:46:03.419Z,7.2
2023-12-09T00:47:10.430Z,7.2
2023-12-09T00:48:17.706Z,7.2
2023-12-09T00:49:24.754Z,7.2
2023-12-09T00:50:31.202Z,7.1
2023-12-09T00:51:38.411Z,7.2
2023-12-09T00:52:45.499Z,7.1
2023-12-09T00:53:52.613Z,7.1
2023-12-09T00:54:59.756Z,7.1
2023-12-09T00:56:07.618Z,7.1
2023-12-09T00:57:13.402Z,7.1
2023-12-09T00:58:20.432Z,7.1
2023-12-09T01:00:34.889Z,7.1
2023-12-09T01:01:41.307Z,7.1
2023-12-09T01:02:48.607Z,7.1
2023-12-09T01:03:55.664Z,7.1
2023-12-09T01:05:02.628Z,7.1
2023-12-09T01:06:09.722Z,7.1
2023-12-09T01:07:16.335Z,7.1
2023-12-09T01:08:23.368Z,7
2023-12-09T01:09:30.546Z,7.1
2023-12-09T01:10:37.588Z,7
2023-12-09T01:11:44.686Z,7.1
2023-12-09T01:12:52.208Z,7
2023-12-09T01:13:58.370Z,7.1
2023-12-09T01:15:05.542Z,7
2023-12-09T01:16:12.620Z,7
2023-12-09T01:17:19.181Z,7
2023-12-09T01:18:26.966Z,7
2023-12-09T01:19:33.390Z,7
2023-12-09T01:20:40.489Z,7
2023-12-09T01:21:47.630Z,7
2023-12-09T01:22:54.205Z,7
2023-12-09T01:24:01.375Z,7
2023-12-09T01:25:08.371Z,7
2023-12-09T01:26:15.484Z,7
2023-12-09T01:27:22.691Z,7
2023-12-09T01:28:29.230Z,7
2023-12-09T01:29:36.342Z,7
2023-12-09T01:30:43.518Z,7
2023-12-09T01:31:50.527Z,7
2023-12-09T01:34:04.462Z,7
2023-12-09T01:35:11.406Z,6.9
2023-12-09T01:36:18.473Z,6.9
2023-12-09T01:37:25.545Z,6.9
2023-12-09T01:38:32.622Z,6.9
2023-12-09T01:39:39.166Z,6.9
2023-12-09T01:40:46.384Z,6.9
2023-12-09T01:41:53.505Z,6.9
2023-12-09T01:43:00.626Z,6.9
2023-12-09T01:44:07.591Z,6.9
2023-12-09T01:45:14.301Z,6.9
2023-12-09T01:46:21.368Z,6.9
2023-12-09T01:47:28.416Z,6.9
2023-12-09T01:48:35.819Z,6.9
2023-12-09T01:49:43.492Z,6.9
2023-12-09T01:50:49.185Z,6.8
2023-12-09T01:51:56.321Z,6.8
2023-12-09T01:53:03.419Z,6.8
2023-12-09T01:54:10.603Z,6.8
2023-12-09T01:55:17.683Z,6.8
2023-12-09T01:56:24.274Z,6.8
2023-12-09T01:57:31.445Z,6.8
2023-12-09T01:58:38.535Z,6.8
2023-12-09T01:59:45.541Z,6.8
2023-12-09T02:00:52.750Z,6.8
2023-12-09T02:01:59.222Z,6.9
2023-12-09T02:04:13.636Z,6.8
2023-12-09T02:05:20.629Z,6.9
2023-12-09T02:06:27.685Z,6.8
2023-12-09T02:07:34.316Z,6.9
2023-12-09T02:08:41.396Z,6.9
2023-12-09T02:09:49.013Z,7
2023-12-09T02:10:55.566Z,7
2023-12-09T02:12:02.700Z,7
2023-12-09T02:13:09.234Z,7.1
2023-12-09T02:14:16.451Z,7.1
2023-12-09T02:15:23.553Z,7.1
2023-12-09T02:16:30.610Z,7.2
2023-12-09T02:17:37.728Z,7.2
2023-12-09T02:18:44.320Z,7.2
2023-12-09T02:19:51.381Z,7.2
2023-12-09T02:20:58.502Z,7.2
2023-12-09T02:22:05.568Z,7.2
2023-12-09T02:23:12.758Z,7.2
2023-12-09T02:24:19.255Z,7.3
2023-12-09T02:25:26.394Z,7.3
2023-12-09T02:26:33.537Z,7.3
2023-12-09T02:27:40.609Z,7.3
2023-12-09T02:28:47.647Z,7.3
2023-12-09T02:29:54.336Z,7.3
2023-12-09T02:31:01.405Z,7.3
2023-12-09T02:32:08.980Z,7.4
2023-12-09T02:33:15.774Z,7.4
2023-12-09T02:34:22.784Z,7.4
2023-12-09T02:35:29.283Z,7.4
2023-12-09T02:36:36.452Z,7.4
2023-12-09T02:37:43.538Z,7.4
2023-12-09T02:38:50.798Z,7.4
2023-12-09T02:39:57.720Z,7.4
2023-12-09T02:41:04.329Z,7.4
2023-12-09T02:42:11.416Z,7.4
2023-12-09T02:43:18.563Z,7.3
2023-12-09T02:44:25.642Z,7.4
2023-12-09T02:45:32.267Z,7.4
2023-12-09T02:46:39.280Z,7.4
2023-12-09T02:47:47.363Z,7.4
2023-12-09T02:48:53.723Z,7.4
2023-12-09T02:50:00.716Z,7.4
2023-12-09T02:51:07.279Z,7.4
2023-12-09T02:52:14.370Z,7.4
2023-12-09T02:53:21.390Z,7.4
2023-12-09T02:54:28.587Z,7.4
2023-12-09T02:55:35.632Z,7.4
2023-12-09T02:56:42.193Z,7.4
2023-12-09T02:57:49.333Z,7.4
2023-12-09T02:58:56.404Z,7.4
2023-12-09T03:00:03.632Z,7.4
2023-12-09T03:02:17.215Z,7.4
2023-12-09T03:03:24.421Z,7.4
2023-12-09T03:04:31.387Z,7.4
2023-12-09T03:05:38.570Z,7.4
2023-12-09T03:07:52.188Z,7.3
2023-12-09T03:08:59.371Z,7.3
2023-12-09T03:10:06.548Z,7.3
2023-12-09T03:11:14.049Z,7.2
2023-12-09T03:12:20.683Z,7.3
2023-12-09T03:13:27.268Z,7.3
2023-12-09T03:14:34.360Z,7.3
2023-12-09T03:15:41.490Z,7.4
2023-12-09T03:16:48.548Z,7.4
2023-12-09T03:17:55.798Z,7.4
2023-12-09T03:19:02.405Z,7.4
2023-12-09T03:20:09.410Z,7.5
2023-12-09T03:21:16.590Z,7.5
2023-12-09T03:22:23.632Z,7.5
2023-12-09T03:23:30.674Z,7.5
2023-12-09T03:24:37.352Z,7.6
2023-12-09T03:25:44.898Z,7.6
2023-12-09T03:26:51.480Z,7.6
2023-12-09T03:28:01.353Z,7.6
2023-12-09T03:29:05.771Z,7.6
2023-12-09T03:30:12.293Z,7.6
2023-12-09T03:31:19.348Z,7.6
2023-12-09T03:32:26.690Z,7.7
2023-12-09T03:33:33.737Z,7.7
2023-12-09T03:34:43.100Z,7.7
2023-12-09T03:35:47.244Z,7.7
2023-12-09T03:36:54.408Z,7.8
2023-12-09T03:38:02.037Z,7.8
2023-12-09T03:39:08.566Z,7.8
2023-12-09T03:40:15.805Z,7.8
2023-12-09T03:41:25.253Z,7.8
2023-12-09T03:42:29.667Z,7.8
2023-12-09T03:43:36.537Z,7.8
2023-12-09T03:44:43.635Z,7.8
2023-12-09T03:45:50.679Z,7.8
2023-12-09T03:46:57.272Z,7.8
2023-12-09T03:48:04.577Z,7.8
2023-12-09T03:49:11.558Z,7.8
2023-12-09T03:50:20.968Z,7.8
2023-12-09T03:51:25.823Z,7.8
2023-12-09T03:52:32.277Z,7.8
2023-12-09T03:53:39.368Z,7.7
2023-12-09T03:54:46.487Z,7.7
2023-12-09T03:55:53.579Z,7.8
2023-12-09T03:57:00.742Z,7.8
2023-12-09T03:58:07.315Z,7.8
2023-12-09T03:59:14.409Z,7.8
2023-12-09T04:00:21.506Z,7.8
2023-12-09T04:01:28.614Z,7.8
2023-12-09T04:02:35.705Z,7.8
2023-12-09T04:03:42.410Z,7.8
2023-12-09T04:04:49.407Z,7.8
2023-12-09T04:05:56.753Z,7.8
2023-12-09T04:07:03.601Z,7.8
2023-12-09T04:08:10.683Z,7.8
2023-12-09T04:09:17.410Z,7.9
2023-12-09T04:11:36.793Z,7.9
2023-12-09T04:12:39.088Z,7.9
2023-12-09T04:13:45.712Z,7.9
2023-12-09T04:14:52.371Z,7.9
2023-12-09T04:15:59.469Z,7.9
2023-12-09T04:17:06.691Z,7.9
2023-12-09T04:18:13.748Z,7.9
2023-12-09T04:19:20.803Z,7.9
2023-12-09T04:20:27.379Z,7.9
2023-12-09T04:21:34.435Z,7.9
2023-12-09T04:22:41.832Z,7.9
2023-12-09T04:23:48.618Z,7.9
2023-12-09T04:24:55.745Z,7.9
2023-12-09T04:26:02.364Z,7.9
2023-12-09T04:27:09.448Z,7.9
2023-12-09T04:28:16.608Z,7.9
2023-12-09T04:30:30.306Z,8
2023-12-09T04:31:37.338Z,8
2023-12-09T04:32:44.491Z,8
2023-12-09T04:33:51.745Z,8.1
2023-12-09T04:34:58.668Z,8.1
2023-12-09T04:36:05.282Z,8.1
2023-12-09T04:37:12.460Z,8.1
2023-12-09T04:38:19.428Z,8.1
2023-12-09T04:39:26.654Z,8.1
2023-12-09T04:40:33.779Z,8.1
2023-12-09T04:41:40.237Z,8
2023-12-09T04:42:47.458Z,8.1
2023-12-09T04:43:54.468Z,8.1
2023-12-09T04:45:03.460Z,8.1
2023-12-09T04:46:08.646Z,8.1
2023-12-09T04:47:15.250Z,8.1
2023-12-09T04:48:22.507Z,8.1
2023-12-09T04:49:29.597Z,8.1
2023-12-09T04:50:36.665Z,8
2023-12-09T04:51:43.829Z,8.1
2023-12-09T04:52:50.225Z,8.1
2023-12-09T04:53:57.437Z,8
2023-12-09T04:55:04.432Z,8.1
2023-12-09T04:56:11.676Z,8.1
2023-12-09T04:57:18.716Z,8.1
2023-12-09T04:58:25.421Z,8.1
2023-12-09T04:59:32.437Z,8.1
2023-12-09T05:00:39.559Z,8.1
2023-12-09T05:01:46.582Z,8
2023-12-09T05:02:53.821Z,8
2023-12-09T05:04:00.436Z,8
2023-12-09T05:05:07.392Z,8
2023-12-09T05:06:15.078Z,8
2023-12-09T05:07:21.556Z,8
2023-12-09T05:08:28.698Z,7.9
2023-12-09T05:09:35.388Z,7.9
2023-12-09T05:10:42.405Z,7.9
2023-12-09T05:11:49.900Z,7.9
2023-12-09T05:12:56.636Z,7.9
2023-12-09T05:14:03.821Z,7.9
2023-12-09T05:15:10.311Z,7.9
2023-12-09T05:16:17.370Z,7.9
2023-12-09T05:17:24.554Z,7.9
2023-12-09T05:18:31.721Z,7.9
2023-12-09T05:19:38.864Z,7.9
2023-12-09T05:20:45.348Z,7.9
2023-12-09T05:21:52.481Z,7.9
2023-12-09T05:22:59.536Z,7.9
2023-12-09T05:24:06.705Z,7.8
2023-12-09T05:25:13.861Z,7.8
2023-12-09T05:26:20.313Z,7.8
2023-12-09T05:27:27.623Z,7.8
2023-12-09T05:28:34.584Z,7.8
2023-12-09T05:29:44.347Z,7.8
2023-12-09T05:30:48.756Z,7.8
2023-12-09T05:31:55.347Z,7.7
2023-12-09T05:33:03.094Z,7.7
2023-12-09T05:34:09.740Z,7.8
2023-12-09T05:35:16.685Z,7.7
2023-12-09T05:36:23.764Z,7.7
2023-12-09T05:37:30.358Z,7.7
2023-12-09T05:38:37.429Z,7.7
2023-12-09T05:39:45.096Z,7.7
2023-12-09T05:40:51.620Z,7.7
2023-12-09T05:41:58.742Z,7.7
2023-12-09T05:43:05.430Z,7.7
2023-12-09T05:44:12.439Z,7.7
2023-12-09T05:45:20.462Z,7.7
2023-12-09T05:46:26.642Z,7.7
2023-12-09T05:47:34.161Z,7.7
2023-12-09T05:48:40.518Z,7.7
2023-12-09T05:49:47.527Z,7.7
2023-12-09T05:50:54.633Z,7.8
2023-12-09T05:52:01.689Z,7.8
2023-12-09T05:53:08.763Z,7.8
2023-12-09T05:54:15.415Z,7.8
2023-12-09T05:55:22.514Z,7.8
2023-12-09T05:56:29.665Z,7.8
2023-12-09T05:58:43.778Z,7.8
2023-12-09T05:59:50.349Z,7.8
2023-12-09T06:00:57.529Z,7.8
2023-12-09T06:02:04.589Z,7.8
2023-12-09T06:03:11.697Z,7.8
2023-12-09T06:04:18.300Z,7.8
2023-12-09T06:05:25.403Z,7.8
2023-12-09T06:06:32.607Z,7.8
2023-12-09T06:07:39.539Z,7.8
2023-12-09T06:08:46.727Z,7.8
2023-12-09T06:09:53.311Z,7.8
2023-12-09T06:11:00.401Z,7.8
2023-12-09T06:12:07.501Z,7.9
2023-12-09T06:13:14.698Z,7.8
2023-12-09T06:14:21.652Z,7.8
2023-12-09T06:15:28.317Z,7.8
2023-12-09T06:16:35.392Z,7.9
2023-12-09T06:17:42.559Z,7.8
2023-12-09T06:18:49.704Z,7.9
2023-12-09T06:19:56.723Z,7.9
2023-12-09T06:21:03.371Z,7.9
2023-12-09T06:22:10.363Z,7.8
2023-12-09T06:23:17.517Z,7.8
2023-12-09T06:24:24.673Z,7.8
2023-12-09T06:25:31.733Z,7.8
2023-12-09T06:26:38.315Z,7.8
2023-12-09T06:27:45.417Z,7.8
2023-12-09T06:28:52.600Z,7.8
2023-12-09T06:29:59.673Z,7.8
2023-12-09T06:31:06.716Z,7.8
2023-12-09T06:32:13.299Z,7.8
2023-12-09T06:33:20.440Z,7.8
2023-12-09T06:34:28.150Z,7.8
2023-12-09T06:35:34.572Z,7.8
2023-12-09T06:36:41.777Z,7.8
2023-12-09T06:37:48.350Z,7.8
2023-12-09T06:38:55.453Z,7.8
2023-12-09T06:40:02.560Z,7.8
2023-12-09T06:41:09.653Z,7.8
2023-12-09T06:42:16.777Z,7.8
2023-12-09T06:43:23.331Z,7.8
2023-12-09T06:44:30.456Z,7.8
2023-12-09T06:45:37.547Z,7.8
2023-12-09T06:46:44.604Z,7.8
2023-12-09T06:47:52.902Z,7.8
2023-12-09T06:48:58.510Z,7.8
2023-12-09T06:50:05.421Z,7.8
2023-12-09T06:51:12.597Z,7.8
2023-12-09T06:52:19.626Z,7.8
2023-12-09T06:53:26.806Z,7.8
2023-12-09T06:54:33.412Z,7.8
2023-12-09T06:55:40.413Z,7.8
2023-12-09T06:56:47.509Z,7.8
2023-12-09T06:57:54.612Z,7.8
2023-12-09T06:59:01.992Z,7.8
2023-12-09T07:00:08.495Z,7.8
2023-12-09T07:01:15.462Z,7.8
2023-12-09T07:02:22.557Z,7.8
2023-12-09T07:03:29.766Z,7.8
2023-12-09T07:04:36.950Z,7.8
2023-12-09T07:05:43.406Z,7.8
2023-12-09T07:06:50.457Z,7.8
2023-12-09T07:07:57.579Z,7.8
2023-12-09T07:09:04.796Z,7.8
2023-12-09T07:10:11.800Z,7.8
2023-12-09T07:11:18.339Z,7.8
2023-12-09T07:12:25.773Z,7.8
2023-12-09T07:13:32.598Z,7.8
2023-12-09T07:14:39.683Z,7.8
2023-12-09T07:15:46.770Z,7.8
2023-12-09T07:16:53.409Z,7.8
2023-12-09T07:18:00.667Z,7.8
2023-12-09T07:19:07.909Z,7.8
2023-12-09T07:20:14.662Z,7.8
2023-12-09T07:21:21.779Z,7.8
2023-12-09T07:22:28.560Z,7.8
2023-12-09T07:23:43.113Z,7.8
2023-12-09T07:24:42.587Z,7.8
2023-12-09T07:26:56.821Z,7.8
2023-12-09T07:28:03.384Z,7.8
2023-12-09T07:29:10.555Z,7.8
2023-12-09T07:30:17.654Z,7.7
2023-12-09T07:31:24.710Z,7.7
2023-12-09T07:32:32.067Z,7.7
2023-12-09T07:33:38.433Z,7.8
2023-12-09T07:34:45.766Z,7.8
2023-12-09T07:35:52.615Z,7.8
2023-12-09T07:36:59.684Z,7.8
2023-12-09T07:38:06.274Z,7.8
2023-12-09T07:39:13.455Z,7.8
2023-12-09T07:40:21.077Z,7.8
2023-12-09T07:41:27.705Z,7.8
2023-12-09T07:42:34.708Z,7.8
2023-12-09T07:43:41.302Z,7.8
2023-12-09T07:44:48.358Z,7.8
2023-12-09T07:45:55.532Z,7.8
2023-12-09T07:47:02.612Z,7.8
2023-12-09T07:48:10.023Z,7.8
2023-12-09T07:49:16.405Z,7.8
2023-12-09T07:50:23.418Z,7.8
2023-12-09T07:51:30.565Z,7.8
2023-12-09T07:52:37.618Z,7.8
2023-12-09T07:53:44.680Z,7.8
2023-12-09T07:54:51.312Z,7.8
2023-12-09T07:55:58.410Z,7.8
2023-12-09T07:57:05.624Z,7.8
2023-12-09T07:58:12.679Z,7.8
2023-12-09T07:59:19.799Z,7.8
2023-12-09T08:00:26.466Z,7.8
2023-12-09T08:01:33.508Z,7.8
2023-12-09T08:02:41.052Z,7.8
2023-12-09T08:03:47.758Z,7.8
2023-12-09T08:04:54.731Z,7.8
2023-12-09T08:06:01.460Z,7.8
2023-12-09T08:07:08.457Z,7.8
2023-12-09T08:08:16.341Z,7.8
2023-12-09T08:09:22.724Z,7.8
2023-12-09T08:10:29.722Z,7.7
2023-12-09T08:11:36.449Z,7.7
2023-12-09T08:12:43.576Z,7.7
2023-12-09T08:13:50.545Z,7.7
2023-12-09T08:14:57.759Z,7.7
2023-12-09T08:16:04.802Z,7.7
2023-12-09T08:17:11.493Z,7.7
2023-12-09T08:18:18.699Z,7.7
2023-12-09T08:19:25.625Z,7.7
2023-12-09T08:20:32.666Z,7.7
2023-12-09T08:21:39.906Z,7.7
2023-12-09T08:22:46.397Z,7.7
2023-12-09T08:23:53.510Z,7.7
2023-12-09T08:25:00.557Z,7.7
2023-12-09T08:26:07.670Z,7.7
2023-12-09T08:27:14.834Z,7.6
2023-12-09T08:28:21.328Z,7.6
2023-12-09T08:29:29.964Z,7.6
2023-12-09T08:30:35.623Z,7.6
2023-12-09T08:31:42.714Z,7.6
2023-12-09T08:32:49.804Z,7.6
2023-12-09T08:33:56.479Z,7.7
2023-12-09T08:35:09.728Z,7.6
2023-12-09T08:36:10.634Z,7.6
2023-12-09T08:37:17.632Z,7.6
2023-12-09T08:38:24.849Z,7.6
2023-12-09T08:39:31.441Z,7.7
2023-12-09T08:40:38.527Z,7.6
2023-12-09T08:41:45.631Z,7.6
2023-12-09T08:42:52.737Z,7.6
2023-12-09T08:43:59.747Z,7.7
2023-12-09T08:45:06.395Z,7.6
2023-12-09T08:46:13.477Z,7.6
2023-12-09T08:47:20.601Z,7.6
2023-12-09T08:48:27.865Z,7.7
2023-12-09T08:49:34.924Z,7.7
2023-12-09T08:50:41.390Z,7.6
2023-12-09T08:51:48.447Z,7.6
2023-12-09T08:52:55.677Z,7.6
2023-12-09T08:55:09.850Z,7.6
2023-12-09T08:56:16.443Z,7.6
2023-12-09T08:57:23.568Z,7.6
2023-12-09T08:58:30.646Z,7.6
2023-12-09T08:59:37.688Z,7.7
2023-12-09T09:00:45.017Z,7.6
2023-12-09T09:01:51.406Z,7.6
2023-12-09T09:02:58.515Z,7.6
2023-12-09T09:04:05.683Z,7.6
2023-12-09T09:05:12.797Z,7.7
2023-12-09T09:06:19.848Z,7.6
2023-12-09T09:07:26.438Z,7.6
2023-12-09T09:08:33.557Z,7.6
2023-12-09T09:09:43.711Z,7.6
2023-12-09T09:10:47.714Z,7.6
2023-12-09T09:11:54.325Z,7.6
2023-12-09T09:13:01.397Z,7.6
2023-12-09T09:14:08.523Z,7.6
2023-12-09T09:15:15.706Z,7.6
2023-12-09T09:16:22.754Z,7.6
2023-12-09T09:17:29.456Z,7.6
2023-12-09T09:18:36.553Z,7.6
2023-12-09T09:19:43.910Z,7.6
2023-12-09T09:20:50.610Z,7.6
2023-12-09T09:21:57.779Z,7.6
2023-12-09T09:23:04.401Z,7.6
2023-12-09T09:24:11.432Z,7.6
2023-12-09T09:25:18.513Z,7.6
2023-12-09T09:26:25.608Z,7.6
2023-12-09T09:27:32.832Z,7.6
2023-12-09T09:28:39.380Z,7.6
2023-12-09T09:29:46.418Z,7.6
2023-12-09T09:30:54.226Z,7.6
2023-12-09T09:32:00.638Z,7.6
2023-12-09T09:33:08.004Z,7.6
2023-12-09T09:34:14.481Z,7.6
2023-12-09T09:35:21.395Z,7.6
2023-12-09T09:36:28.560Z,7.6
2023-12-09T09:37:35.620Z,7.6
2023-12-09T09:38:42.792Z,7.7
2023-12-09T09:39:49.476Z,7.6
2023-12-09T09:40:56.456Z,7.6
2023-12-09T09:42:03.596Z,7.6
2023-12-09T09:43:10.638Z,7.6
2023-12-09T09:44:17.743Z,7.6
2023-12-09T09:45:28.197Z,7.6
2023-12-09T09:46:31.433Z,7.6
2023-12-09T09:48:45.885Z,7.6
2023-12-09T09:49:52.822Z,7.6
2023-12-09T09:51:00.149Z,7.6
2023-12-09T09:52:06.465Z,7.6
2023-12-09T09:53:13.606Z,7.6
2023-12-09T09:54:20.712Z,7.6
2023-12-09T09:55:27.801Z,7.7
2023-12-09T09:56:34.425Z,7.6
2023-12-09T09:57:41.478Z,7.6
2023-12-09T09:58:48.552Z,7.6
2023-12-09T09:59:55.653Z,7.6
2023-12-09T10:01:03.004Z,7.7
2023-12-09T10:02:09.336Z,7.6
2023-12-09T10:03:16.514Z,7.6
2023-12-09T10:04:23.610Z,7.6
2023-12-09T10:05:30.711Z,7.6
2023-12-09T10:06:37.852Z,7.6
2023-12-09T10:07:44.419Z,7.7
2023-12-09T10:08:51.496Z,7.7
2023-12-09T10:09:58.599Z,7.7
2023-12-09T10:11:05.715Z,7.7
2023-12-09T10:12:12.883Z,7.7
2023-12-09T10:13:19.423Z,7.7
2023-12-09T10:14:26.532Z,7.7
2023-12-09T10:15:33.835Z,7.7
2023-12-09T10:16:40.725Z,7.7
2023-12-09T10:17:47.842Z,7.7
2023-12-09T10:18:54.636Z,7.7
2023-12-09T10:20:01.572Z,7.7
2023-12-09T10:21:08.599Z,7.7
2023-12-09T10:22:15.679Z,7.7
2023-12-09T10:23:22.831Z,7.7
2023-12-09T10:24:29.419Z,7.7
2023-12-09T10:25:36.534Z,7.7
2023-12-09T10:26:43.608Z,7.7
2023-12-09T10:27:50.786Z,7.7
2023-12-09T10:28:57.859Z,7.7
2023-12-09T10:30:04.585Z,7.7
2023-12-09T10:31:11.497Z,7.7
2023-12-09T10:32:18.591Z,7.8
2023-12-09T10:33:25.952Z,7.8
2023-12-09T10:34:32.946Z,7.8
2023-12-09T10:35:39.388Z,7.8
2023-12-09T10:36:46.517Z,7.7
2023-12-09T10:37:54.362Z,7.8
2023-12-09T10:39:00.726Z,7.8
2023-12-09T10:40:07.962Z,7.8
2023-12-09T10:41:14.486Z,7.8
2023-12-09T10:42:21.545Z,7.8
2023-12-09T10:43:28.603Z,7.8
2023-12-09T10:45:42.894Z,7.8
2023-12-09T10:46:49.396Z,7.8
2023-12-09T10:47:56.650Z,7.8
2023-12-09T10:49:03.803Z,7.8
2023-12-09T10:50:10.777Z,7.8
2023-12-09T10:52:24.456Z,7.8
2023-12-09T10:53:31.517Z,7.8
2023-12-09T10:54:38.782Z,7.8
2023-12-09T10:55:45.748Z,7.8
2023-12-09T10:56:52.376Z,7.8
2023-12-09T10:57:59.470Z,7.8
2023-12-09T11:00:13.660Z,7.8
2023-12-09T11:01:20.867Z,7.8
2023-12-09T11:02:27.661Z,7.8
2023-12-09T11:03:34.524Z,7.9
2023-12-09T11:04:41.617Z,7.9
2023-12-09T11:05:48.727Z,7.8
2023-12-09T11:06:55.762Z,7.9
2023-12-09T11:08:02.400Z,7.9
2023-12-09T11:09:09.589Z,7.9
2023-12-09T11:10:16.652Z,7.9
2023-12-09T11:11:23.700Z,7.9
2023-12-09T11:12:30.905Z,7.9
2023-12-09T11:13:37.450Z,7.9
2023-12-09T11:14:44.524Z,7.9
2023-12-09T11:15:51.624Z,7.8
2023-12-09T11:16:58.752Z,7.8
2023-12-09T11:18:06.044Z,7.8
2023-12-09T11:19:12.558Z,7.8
2023-12-09T11:20:19.762Z,7.8
2023-12-09T11:21:26.650Z,7.8
2023-12-09T11:22:33.695Z,7.8
2023-12-09T11:23:42.117Z,7.8
2023-12-09T11:24:47.393Z,7.8
2023-12-09T11:25:54.612Z,7.8
2023-12-09T11:27:01.616Z,7.8
2023-12-09T11:28:08.707Z,7.8
2023-12-09T11:29:15.773Z,7.8
2023-12-09T11:30:22.513Z,7.8
2023-12-09T11:31:29.506Z,7.8
2023-12-09T11:32:36.650Z,7.8
2023-12-09T11:33:43.779Z,7.8
2023-12-09T11:34:50.817Z,7.8
2023-12-09T11:35:57.407Z,7.8
2023-12-09T11:37:04.536Z,7.8
2023-12-09T11:38:11.611Z,7.8
2023-12-09T11:39:18.779Z,7.8
2023-12-09T11:40:25.870Z,7.8
2023-12-09T11:41:32.395Z,7.8
2023-12-09T11:42:39.550Z,7.8
2023-12-09T11:43:46.612Z,7.7
2023-12-09T11:44:53.757Z,7.7
2023-12-09T11:46:00.838Z,7.7
2023-12-09T11:47:07.406Z,7.7
2023-12-09T11:48:14.681Z,7.7
2023-12-09T11:49:21.744Z,7.7
2023-12-09T11:50:28.803Z,7.7
2023-12-09T11:51:35.961Z,7.7
2023-12-09T11:52:42.422Z,7.6
2023-12-09T11:53:49.530Z,7.6
2023-12-09T11:56:03.728Z,7.6
2023-12-09T11:57:10.874Z,7.6
2023-12-09T11:58:17.445Z,7.6
2023-12-09T11:59:24.538Z,7.6
2023-12-09T12:00:31.716Z,7.6
2023-12-09T12:01:38.705Z,7.6
2023-12-09T12:02:45.841Z,7.6
2023-12-09T12:03:52.505Z,7.6
2023-12-09T12:04:59.640Z,7.6
2023-12-09T12:06:06.720Z,7.6
2023-12-09T12:07:13.786Z,7.6
2023-12-09T12:08:20.386Z,7.6
2023-12-09T12:09:27.526Z,7.6
2023-12-09T12:10:37.118Z,7.6
2023-12-09T12:11:41.669Z,7.6
2023-12-09T12:12:48.776Z,7.6
2023-12-09T12:13:55.449Z,7.6
2023-12-09T12:15:02.540Z,7.6
2023-12-09T12:16:09.583Z,7.6
2023-12-09T12:17:17.520Z,7.6
2023-12-09T12:18:23.914Z,7.6
2023-12-09T12:19:30.472Z,7.6
2023-12-09T12:20:37.422Z,7.6
2023-12-09T12:21:44.576Z,7.6
2023-12-09T12:22:51.624Z,7.6
2023-12-09T12:23:58.865Z,7.6
2023-12-09T12:25:05.610Z,7.6
2023-12-09T12:26:12.777Z,7.6
2023-12-09T12:28:26.709Z,7.6
2023-12-09T12:29:33.778Z,7.6
2023-12-09T12:30:40.428Z,7.6
2023-12-09T12:31:47.488Z,7.7
2023-12-09T12:32:56.833Z,7.7
2023-12-09T12:34:01.869Z,7.7
2023-12-09T12:35:08.822Z,7.7
2023-12-09T12:36:15.375Z,7.7
2023-12-09T12:37:22.497Z,7.7
2023-12-09T12:38:29.638Z,7.7
2023-12-09T12:39:36.737Z,7.7
2023-12-09T12:40:43.768Z,7.7
2023-12-09T12:41:50.411Z,7.7
2023-12-09T12:42:57.893Z,7.7
2023-12-09T12:44:04.674Z,7.7
2023-12-09T12:45:11.732Z,7.7
2023-12-09T12:46:18.833Z,7.7
2023-12-09T12:47:25.433Z,7.7
2023-12-09T12:48:32.880Z,7.7
2023-12-09T12:49:39.800Z,7.7
2023-12-09T12:50:46.749Z,7.7
2023-12-09T12:51:53.832Z,7.7
2023-12-09T12:53:00.389Z,7.7
2023-12-09T12:54:07.625Z,7.8
2023-12-09T12:55:14.610Z,7.8
2023-12-09T12:56:21.736Z,7.8
2023-12-09T12:57:28.837Z,7.8
2023-12-09T12:59:44.612Z,7.8
2023-12-09T13:00:49.680Z,7.8
2023-12-09T13:01:56.726Z,7.8
2023-12-09T13:03:03.967Z,7.8
2023-12-09T13:04:10.511Z,7.8
2023-12-09T13:05:17.570Z,7.8
2023-12-09T13:06:24.737Z,7.9
2023-12-09T13:07:31.700Z,7.9
2023-12-09T13:08:38.820Z,7.9
2023-12-09T13:09:45.528Z,7.9
2023-12-09T13:10:52.606Z,7.9
2023-12-09T13:11:59.789Z,7.9
2023-12-09T13:13:06.933Z,7.9
2023-12-09T13:14:13.889Z,7.8
2023-12-09T13:15:20.480Z,7.8
2023-12-09T13:16:27.614Z,7.8
2023-12-09T13:17:34.727Z,7.8
2023-12-09T13:18:41.810Z,7.8
2023-12-09T13:19:49.046Z,7.8
2023-12-09T13:20:55.419Z,7.7
2023-12-09T13:22:02.669Z,7.7
2023-12-09T13:23:09.681Z,7.7
2023-12-09T13:24:16.802Z,7.7
2023-12-09T13:25:23.894Z,7.7
2023-12-09T13:26:30.462Z,7.7
2023-12-09T13:27:37.565Z,7.7
2023-12-09T13:28:44.680Z,7.7
2023-12-09T13:29:51.761Z,7.7
2023-12-09T13:30:58.900Z,7.7
2023-12-09T13:32:05.484Z,7.7
2023-12-09T13:33:12.800Z,7.7
2023-12-09T13:34:19.789Z,7.7
2023-12-09T13:35:26.777Z,7.7
2023-12-09T13:36:33.931Z,7.7
2023-12-09T13:37:40.453Z,7.8
2023-12-09T13:38:47.559Z,7.7
2023-12-09T13:39:54.789Z,7.7
2023-12-09T13:41:01.796Z,7.7
2023-12-09T13:42:08.949Z,7.7
2023-12-09T13:43:15.510Z,7.8
2023-12-09T13:44:22.637Z,7.7
2023-12-09T13:45:29.760Z,7.7
2023-12-09T13:46:36.797Z,7.7
2023-12-09T13:47:43.952Z,7.7
2023-12-09T13:48:50.551Z,7.7
2023-12-09T13:49:57.652Z,7.7
2023-12-09T13:51:04.711Z,7.7
2023-12-09T13:52:11.795Z,7.7
2023-12-09T13:53:18.921Z,7.7
2023-12-09T13:54:25.585Z,7.7
2023-12-09T13:56:40.914Z,7.7
2023-12-09T13:57:46.846Z,7.8
2023-12-09T13:58:54.013Z,7.8
2023-12-09T14:00:00.653Z,7.7
2023-12-09T14:01:07.652Z,7.8
2023-12-09T14:03:21.828Z,7.8
2023-12-09T14:04:29.457Z,7.8
2023-12-09T14:05:35.507Z,7.8
2023-12-09T14:06:42.692Z,7.7
2023-12-09T14:07:49.705Z,7.7
2023-12-09T14:08:56.846Z,7.8
2023-12-09T14:10:03.462Z,7.7
2023-12-09T14:11:10.586Z,7.7
2023-12-09T14:12:17.633Z,7.7
2023-12-09T14:13:24.712Z,7.8
2023-12-09T14:14:31.878Z,7.8
2023-12-09T14:15:38.466Z,7.8
2023-12-09T14:16:45.560Z,7.8
2023-12-09T14:17:52.753Z,7.8
2023-12-09T14:18:59.763Z,7.8
2023-12-09T14:20:06.930Z,7.8
2023-12-09T14:21:13.518Z,7.8
2023-12-09T14:22:20.485Z,7.8
2023-12-09T14:23:27.588Z,7.8
2023-12-09T14:24:34.735Z,7.8
2023-12-09T14:25:41.882Z,7.8
2023-12-09T14:26:48.443Z,7.8
2023-12-09T14:27:55.559Z,7.8
2023-12-09T14:29:02.630Z,7.8
2023-12-09T14:30:09.795Z,7.8
2023-12-09T14:31:16.818Z,7.7
2023-12-09T14:32:23.477Z,7.8
2023-12-09T14:33:30.624Z,7.7
2023-12-09T14:34:37.821Z,7.8
2023-12-09T14:35:44.793Z,7.8
2023-12-09T14:36:51.854Z,7.8
2023-12-09T14:37:58.440Z,7.8
2023-12-09T14:39:05.584Z,7.8
2023-12-09T14:40:12.663Z,7.8
2023-12-09T14:41:19.752Z,7.8
2023-12-09T14:42:27.130Z,7.8
2023-12-09T14:43:33.571Z,7.8
2023-12-09T14:44:40.540Z,7.8
2023-12-09T14:45:47.677Z,7.8
2023-12-09T14:46:54.805Z,7.8
2023-12-09T14:48:07.654Z,7.7
2023-12-09T14:49:08.624Z,7.7
2023-12-09T14:50:15.764Z,7.7
2023-12-09T14:51:33.965Z,7.7
2023-12-09T14:52:30.046Z,7.7
2023-12-09T14:53:36.856Z,7.7
2023-12-09T14:54:43.527Z,7.7
2023-12-09T14:55:50.601Z,7.7
2023-12-09T14:56:57.640Z,7.7
2023-12-09T14:58:04.809Z,7.7
2023-12-09T14:59:11.948Z,7.7
2023-12-09T15:00:18.543Z,7.7
2023-12-09T15:01:25.622Z,7.6
2023-12-09T15:02:33.977Z,7.6
2023-12-09T15:03:39.908Z,7.7
2023-12-09T15:04:46.882Z,7.7
2023-12-09T15:07:00.615Z,7.6
2023-12-09T15:08:07.734Z,7.6
2023-12-09T15:09:14.861Z,7.6
2023-12-09T15:10:21.870Z,7.6
2023-12-09T15:11:28.497Z,7.6
2023-12-09T15:12:35.669Z,7.6
2023-12-09T15:13:42.757Z,7.6
2023-12-09T15:14:49.799Z,7.6
2023-12-09T15:15:56.952Z,7.6
2023-12-09T15:17:03.501Z,7.6
2023-12-09T15:18:11.783Z,7.6
2023-12-09T15:19:17.986Z,7.6
2023-12-09T15:20:24.820Z,7.6
2023-12-09T15:21:31.433Z,7.6
2023-12-09T15:22:38.507Z,7.6
2023-12-09T15:24:52.797Z,7.6
2023-12-09T15:25:59.783Z,7.6
2023-12-09T15:27:06.958Z,7.5
2023-12-09T15:28:13.495Z,7.5
2023-12-09T15:29:20.607Z,7.5
2023-12-09T15:30:27.803Z,7.5
2023-12-09T15:31:34.845Z,7.4
2023-12-09T15:32:41.447Z,7.4
2023-12-09T15:33:48.681Z,7.4
2023-12-09T15:34:55.739Z,7.5
2023-12-09T15:36:02.885Z,7.4
2023-12-09T15:37:09.846Z,7.4
2023-12-09T15:38:16.534Z,7.4
2023-12-09T15:39:23.527Z,7.3
2023-12-09T15:40:31.836Z,7.3
2023-12-09T15:41:37.747Z,7.3
2023-12-09T15:42:45.067Z,7.3
2023-12-09T15:43:51.467Z,7.3
2023-12-09T15:44:58.549Z,7.3
2023-12-09T15:46:05.627Z,7.2
2023-12-09T15:47:12.790Z,7.2
2023-12-09T15:48:19.969Z,7.2
2023-12-09T15:49:26.571Z,7.2
2023-12-09T15:50:33.586Z,7.2